Aérodrome :
LOGIN :

S'inscrire | Disclaimer

   EN    FR    IT 

 










Légende :    VFR   VFR Marginal   IFR   IFR Intensif   IFR Très Intensif
Visi : 
Plafond : 
>= 8 km
>= 3000ft
5 à 8 km
1000 à 3000 ft
1500m à 5 km
500 à 1000 ft
800 à 1500m
200 à 500 ft
< 800m
< 200 ft
Symboles :   Orages  Brouillard  Fortes neiges  Fortes précipitations  Vent > 20 kt
SIGMETs :   Divers  Orages  Givrage  Turbulence  Onde Orograph.  Cendres Volcan.







- Altitude de l'aérodrome : 82 ft
- Code IATA : QIE
- Voir les cartes d'approche


LFMI - Istres

DERNIER METAR :
  • 172130Z AUTO 34003KT 6000 ///TCU 18/18 Q1015 TEMPO 2000 RA FEW020CB BKN030

METARs EXPIRÉS :
  • 172100Z AUTO 34002KT 6000 -RA NSC 18/18 Q1015 TEMPO 2000 RA FEW020CB BKN030
  • 172030Z AUTO 36003KT 7000 NSC 18/18 Q1015 TEMPO 2000 RA FEW020CB BKN030
  • 172000Z AUTO 02002KT 8000 SCT038 SCT072 OVC092 18/18 Q1014 TEMPO FEW020CB BKN050TCU
  • 171930Z AUTO 36002KT 9999 FEW041 BKN062 OVC096 18/18 Q1014 TEMPO FEW020CB BKN050TCU
  • 171900Z AUTO 00000KT CAVOK 18/18 Q1014 TEMPO FEW020CB BKN050TCU

TAF TAF LFMI
Valide du 17 à 21h jusqu'au 18 à 21h UTC


172000Z 1721/1821 VRB03KT CAVOK TX23/1813Z TN16/1803Z
TEMPO 1721/1806 06007KT 2000 RA FEW020CB BKN030
TEMPO 1806/1815 SCT040
Pas de NOTAMs connus pour ce terrain.



MET'MAP, la Météo Aéronautique d'un coup d'oeil ! - Copyright ORBIFLY Décembre 2007 - Disclaimer

ORBIFLY MET'MAP TEAM :

Programmation & Développement : Alexandra Zaïnal
Conception & Développement : Baudouin d'Aumeries
Co-Programmation & Développement : Marc-Olivier Méhu
Soutien technique & logistique : Manuel Goepfert

Contact : metmap@orbifly.com




SOURCES & CREDITS :

   NOAA